Main page
METAR-TAF:

METAR-TAF

Airports :

Doylestown Airport

Doylestown, Pennsylvania, United States

latitude: 40-19-48N, longitude: 075-07-21W, elevation: 394 ft

Current weather observation

The report was made 45 minutes ago, at 00:54 UTC
Calm wind
Temperature 39°F
Humidity 48%
Pressure 30.29 in. Hg
Visibility: 10 miles
Clear sky

METAR: KDYL 180054Z AUTO 00000KT 10SM CLR 04/M06 A3029 RMK AO2 SLP264 T00391061 $

Time: 20:39 (01:39 UTC)


TAF: missing

Weather observations and forecasts of more than 4000 airports (METAR and TAF reports).

The available stations are represented by yellow and red dots on the map.

Hover mouse over dot to see the name of the station.

Then click to see weather observations and forecasts.

To change the map : click on the green buttons with a black cross to zoom in, on the green button with a dash to zoom out, or on the green arrows for adjacent maps.


METAR-TAF: